createdAt,value
2023-03-02T00:01:29.132Z,52.83
2023-03-02T00:03:59.916Z,53.49
2023-03-02T00:06:29.950Z,53.74
2023-03-02T00:09:03.162Z,53.35
2023-03-02T00:11:32.954Z,53.32
2023-03-02T00:14:00.501Z,53.95
2023-03-02T00:16:28.061Z,53.25
2023-03-02T00:18:55.610Z,52.84
2023-03-02T00:21:24.895Z,52.51
2023-03-02T00:23:53.127Z,52.81
2023-03-02T00:26:21.007Z,52.79
2023-03-02T00:28:48.921Z,51.62
2023-03-02T00:31:16.725Z,51.65
2023-03-02T00:33:44.363Z,51.04
2023-03-02T00:36:17.241Z,51.87
2023-03-02T00:38:45.341Z,50.99
2023-03-02T00:41:13.691Z,50.41
2023-03-02T00:43:41.505Z,50.05
2023-03-02T00:46:11.365Z,50.54
2023-03-02T00:48:39.486Z,50.21
2023-03-02T00:51:07.980Z,50.09
2023-03-02T00:53:36.912Z,50.11
2023-03-02T00:56:05.560Z,50.43
2023-03-02T00:58:37.349Z,50.26
2023-03-02T01:01:08.295Z,49.75
2023-03-02T01:03:39.439Z,51.00
2023-03-02T01:06:16.022Z,50.60
2023-03-02T01:08:43.953Z,50.20
2023-03-02T01:11:21.020Z,50.60
2023-03-02T01:13:50.599Z,51.87
2023-03-02T01:16:18.527Z,53.16
2023-03-02T01:18:46.333Z,52.55
2023-03-02T01:21:17.053Z,53.01
2023-03-02T01:23:44.949Z,51.82
2023-03-02T01:26:12.655Z,51.66
2023-03-02T01:28:40.236Z,50.33
2023-03-02T01:31:08.102Z,51.85
2023-03-02T01:33:35.686Z,51.48
2023-03-02T01:36:03.366Z,50.77
2023-03-02T01:38:31.036Z,51.65
2023-03-02T01:40:58.702Z,51.93
2023-03-02T01:43:26.401Z,52.05
2023-03-02T01:45:57.596Z,52.15
2023-03-02T01:49:07.654Z,51.61
2023-03-02T01:51:55.539Z,50.47
2023-03-02T01:54:24.176Z,50.44
2023-03-02T01:57:02.633Z,52.07
2023-03-02T01:59:33.615Z,53.80
2023-03-02T02:02:06.792Z,52.61
2023-03-02T02:04:38.056Z,51.84
2023-03-02T02:07:07.994Z,50.03
2023-03-02T02:09:45.829Z,50.08
2023-03-02T02:12:19.740Z,48.82
2023-03-02T02:14:48.759Z,48.58
2023-03-02T02:17:18.327Z,49.30
2023-03-02T02:19:59.594Z,49.59
2023-03-02T02:23:05.653Z,49.63
2023-03-02T02:25:53.912Z,49.69
2023-03-02T02:28:48.645Z,49.60
2023-03-02T02:31:28.996Z,49.58
2023-03-02T02:34:07.210Z,49.99
2023-03-02T02:36:41.154Z,49.36
2023-03-02T02:39:19.620Z,48.80
2023-03-02T02:41:50.166Z,48.40
2023-03-02T02:44:19.608Z,48.57
2023-03-02T02:46:47.784Z,49.14
2023-03-02T02:49:30.965Z,48.00
2023-03-02T02:51:59.780Z,49.02
2023-03-02T02:54:29.175Z,48.66
2023-03-02T02:56:58.976Z,48.83
2023-03-02T02:59:32.835Z,50.14
2023-03-02T03:02:01.712Z,49.67
2023-03-02T03:04:32.703Z,49.51
2023-03-02T03:07:06.361Z,50.33
2023-03-02T03:09:34.241Z,50.62
2023-03-02T03:12:08.178Z,49.84
2023-03-02T03:14:39.723Z,51.13
2023-03-02T03:17:12.616Z,52.11
2023-03-02T03:19:48.077Z,52.69
2023-03-02T03:22:17.692Z,51.10
2023-03-02T03:24:47.672Z,50.82
2023-03-02T03:27:17.325Z,48.25
2023-03-02T03:29:50.848Z,50.17
2023-03-02T03:32:21.002Z,49.19
2023-03-02T03:34:51.297Z,49.91
2023-03-02T03:37:31.762Z,49.99
2023-03-02T03:39:59.326Z,51.40
2023-03-02T03:42:27.387Z,49.55
2023-03-02T03:44:56.522Z,50.56
2023-03-02T03:47:24.436Z,50.63
2023-03-02T03:49:52.671Z,49.89
2023-03-02T03:52:30.766Z,50.43
2023-03-02T03:55:07.436Z,50.40
2023-03-02T03:57:35.532Z,49.66
2023-03-02T04:00:08.306Z,50.12
2023-03-02T04:02:42.504Z,48.75
2023-03-02T04:05:13.046Z,47.89
2023-03-02T04:07:41.387Z,47.26
2023-03-02T04:10:11.006Z,45.85
2023-03-02T04:12:42.271Z,46.27
2023-03-02T04:15:15.387Z,46.59
2023-03-02T04:17:45.346Z,45.71
2023-03-02T04:20:18.858Z,45.63
2023-03-02T04:22:52.549Z,45.16
2023-03-02T04:25:23.530Z,43.23
2023-03-02T04:27:54.689Z,44.74
2023-03-02T04:30:26.827Z,41.90
2023-03-02T04:32:57.949Z,42.21
2023-03-02T04:35:28.503Z,41.99
2023-03-02T04:37:56.562Z,41.21
2023-03-02T04:40:24.221Z,41.66
2023-03-02T04:42:51.743Z,40.43
2023-03-02T04:45:19.539Z,40.68
2023-03-02T04:47:47.102Z,39.98
2023-03-02T04:50:15.588Z,38.87
2023-03-02T04:52:43.344Z,37.80
2023-03-02T04:55:20.293Z,38.28
2023-03-02T04:57:48.118Z,36.67
2023-03-02T05:00:18.413Z,36.72
2023-03-02T05:02:46.384Z,36.54
2023-03-02T05:05:18.211Z,34.39
2023-03-02T05:07:45.885Z,33.59
2023-03-02T05:10:15.104Z,34.58
2023-03-02T05:12:55.293Z,34.18
2023-03-02T05:15:28.859Z,33.52
2023-03-02T05:17:56.806Z,33.77
2023-03-02T05:20:27.875Z,32.97
2023-03-02T05:22:56.396Z,32.35
2023-03-02T05:25:24.526Z,32.48
2023-03-02T05:27:53.250Z,32.70
2023-03-02T05:30:22.554Z,31.58
2023-03-02T05:32:51.441Z,30.95
2023-03-02T05:35:20.423Z,31.08
2023-03-02T05:37:48.177Z,29.68
2023-03-02T05:40:19.457Z,29.00
2023-03-02T05:42:47.142Z,30.33
2023-03-02T05:45:22.388Z,30.59
2023-03-02T05:47:50.243Z,32.12
2023-03-02T05:50:18.677Z,32.74
2023-03-02T05:52:46.690Z,34.89
2023-03-02T05:55:15.700Z,34.34
2023-03-02T05:57:43.654Z,33.56
2023-03-02T06:00:13.188Z,32.90
2023-03-02T06:02:41.669Z,31.36
2023-03-02T06:05:14.070Z,31.32
2023-03-02T06:07:42.392Z,32.92
2023-03-02T06:10:12.321Z,32.08
2023-03-02T06:12:40.717Z,32.48
2023-03-02T06:15:09.474Z,33.39
2023-03-02T06:17:37.096Z,33.27
2023-03-02T06:20:10.678Z,43.55
2023-03-02T06:22:45.520Z,35.81
2023-03-02T06:25:16.350Z,35.77
2023-03-02T06:27:44.734Z,34.17
2023-03-02T06:30:16.267Z,38.17
2023-03-02T06:32:44.171Z,39.46
2023-03-02T06:35:12.577Z,37.65
2023-03-02T06:37:42.305Z,38.01
2023-03-02T06:40:14.163Z,42.08
2023-03-02T06:42:43.241Z,46.57
2023-03-02T06:45:11.592Z,48.71
2023-03-02T06:47:39.914Z,50.93
2023-03-02T06:50:08.855Z,52.75
2023-03-02T06:52:36.534Z,52.51
2023-03-02T06:55:05.084Z,53.83
2023-03-02T06:57:34.402Z,54.92
2023-03-02T07:00:10.371Z,57.61
2023-03-02T07:02:38.167Z,56.10
2023-03-02T07:05:07.386Z,54.47
2023-03-02T07:07:35.216Z,53.72
2023-03-02T07:10:02.817Z,54.25
2023-03-02T07:12:31.131Z,50.03
2023-03-02T07:14:58.851Z,53.79
2023-03-02T07:17:26.465Z,54.71
2023-03-02T07:19:54.817Z,54.49
2023-03-02T07:22:22.533Z,53.21
2023-03-02T07:24:50.165Z,53.27
2023-03-02T07:27:17.892Z,55.97
2023-03-02T07:29:45.515Z,54.54
2023-03-02T07:32:13.310Z,55.97
2023-03-02T07:34:40.908Z,53.70
2023-03-02T07:37:08.670Z,55.47
2023-03-02T07:39:36.236Z,60.06
2023-03-02T07:42:04.760Z,69.05
2023-03-02T07:44:33.126Z,75.95
2023-03-02T07:47:01.153Z,71.04
2023-03-02T07:49:29.275Z,68.98
2023-03-02T07:51:57.252Z,53.79
2023-03-02T07:54:26.849Z,49.70
2023-03-02T07:56:54.358Z,48.36
2023-03-02T07:59:21.846Z,44.37
2023-03-02T08:01:49.680Z,39.85
2023-03-02T08:04:17.380Z,37.11
2023-03-02T08:06:45.172Z,34.23
2023-03-02T08:09:14.615Z,33.52
2023-03-02T08:11:45.243Z,33.67
2023-03-02T08:14:12.931Z,34.03
2023-03-02T08:16:41.322Z,33.72
2023-03-02T08:19:09.132Z,31.99
2023-03-02T08:21:37.066Z,32.57
2023-03-02T08:24:04.625Z,36.85
2023-03-02T08:26:32.701Z,34.88
2023-03-02T08:29:00.525Z,31.68
2023-03-02T08:31:28.278Z,31.58
2023-03-02T08:33:56.166Z,30.70
2023-03-02T08:36:23.773Z,30.28
2023-03-02T08:38:51.356Z,28.96
2023-03-02T08:41:21.400Z,28.92
2023-03-02T08:43:49.097Z,27.21
2023-03-02T08:46:19.000Z,30.37
2023-03-02T08:48:47.840Z,32.95
2023-03-02T08:51:18.632Z,38.55
2023-03-02T08:53:48.241Z,41.76
2023-03-02T08:56:27.802Z,45.31
2023-03-02T08:58:58.961Z,41.64
2023-03-02T09:01:32.755Z,40.74
2023-03-02T09:04:01.414Z,43.98
2023-03-02T09:06:31.020Z,45.73
2023-03-02T09:08:58.603Z,44.99
2023-03-02T09:11:26.483Z,41.96
2023-03-02T09:13:55.208Z,45.48
2023-03-02T09:16:26.220Z,43.38
2023-03-02T09:18:54.833Z,48.43
2023-03-02T09:21:22.911Z,45.93
2023-03-02T09:23:54.058Z,47.20
2023-03-02T09:26:21.988Z,48.89
2023-03-02T09:28:49.729Z,45.15
2023-03-02T09:31:17.594Z,47.08
2023-03-02T09:33:45.600Z,47.07
2023-03-02T09:36:19.960Z,49.88
2023-03-02T09:38:48.560Z,46.95
2023-03-02T09:41:35.940Z,45.35
2023-03-02T09:44:21.072Z,47.83
2023-03-02T09:46:54.584Z,48.87
2023-03-02T09:49:59.126Z,48.34
2023-03-02T09:52:48.674Z,42.60
2023-03-02T09:55:24.074Z,39.98
2023-03-02T09:57:51.954Z,41.11
2023-03-02T10:00:30.791Z,43.04
2023-03-02T10:03:16.724Z,43.29
2023-03-02T10:05:48.053Z,41.83
2023-03-02T10:08:19.147Z,42.77
2023-03-02T10:10:52.693Z,42.45
2023-03-02T10:13:31.439Z,42.57
2023-03-02T10:15:59.055Z,47.65
2023-03-02T10:18:44.231Z,53.07
2023-03-02T10:21:22.595Z,50.10
2023-03-02T10:24:14.223Z,53.42
2023-03-02T10:26:55.710Z,50.09
2023-03-02T10:29:50.330Z,49.18
2023-03-02T10:32:18.042Z,49.69
2023-03-02T10:34:45.698Z,48.26
2023-03-02T10:37:18.029Z,50.88
2023-03-02T10:39:45.966Z,47.95
2023-03-02T10:42:21.863Z,42.71
2023-03-02T10:44:55.520Z,48.36
2023-03-02T10:47:28.562Z,48.86
2023-03-02T10:49:58.069Z,51.43
2023-03-02T10:52:28.143Z,48.96
2023-03-02T10:55:14.304Z,47.95
2023-03-02T10:57:44.689Z,48.10
2023-03-02T11:00:22.095Z,47.73
2023-03-02T11:02:56.577Z,52.38
2023-03-02T11:05:28.790Z,45.71
2023-03-02T11:08:01.905Z,48.18
2023-03-02T11:10:42.158Z,49.99
2023-03-02T11:13:29.570Z,52.36
2023-03-02T11:16:00.833Z,49.87
2023-03-02T11:18:38.776Z,51.92
2023-03-02T11:21:38.424Z,50.38
2023-03-02T11:24:14.468Z,50.83
2023-03-02T11:26:52.607Z,44.81
2023-03-02T11:29:37.082Z,51.92
2023-03-02T11:32:10.617Z,53.46
2023-03-02T11:34:49.932Z,51.96
2023-03-02T11:37:20.557Z,52.74
2023-03-02T11:39:55.062Z,48.56
2023-03-02T11:42:31.433Z,47.55
2023-03-02T11:45:04.511Z,51.64
2023-03-02T11:47:34.201Z,53.18
2023-03-02T11:50:07.935Z,51.02
2023-03-02T11:52:40.021Z,51.24
2023-03-02T11:55:13.530Z,53.15
2023-03-02T11:57:49.991Z,53.48
2023-03-02T12:00:31.774Z,49.10
2023-03-02T12:03:06.419Z,53.56
2023-03-02T12:05:37.154Z,54.32
2023-03-02T12:08:29.508Z,54.41
2023-03-02T12:11:02.165Z,52.24
2023-03-02T12:13:39.459Z,50.59
2023-03-02T12:16:33.199Z,51.73
2023-03-02T12:19:25.774Z,51.51
2023-03-02T12:22:02.616Z,49.72
2023-03-02T12:24:35.897Z,48.81
2023-03-02T12:27:26.001Z,50.11
2023-03-02T12:30:08.789Z,49.96
2023-03-02T12:32:36.855Z,48.52
2023-03-02T12:35:11.455Z,47.54
2023-03-02T12:37:53.751Z,48.75
2023-03-02T12:40:39.426Z,48.27
2023-03-02T12:43:28.825Z,49.14
2023-03-02T12:46:21.241Z,50.11
2023-03-02T12:48:49.236Z,48.56
2023-03-02T12:51:58.414Z,49.27
2023-03-02T12:54:28.918Z,47.04
2023-03-02T12:57:06.676Z,49.86
2023-03-02T12:59:34.763Z,46.45
2023-03-02T13:02:23.829Z,47.65
2023-03-02T13:05:03.802Z,49.18
2023-03-02T13:07:41.613Z,46.89
2023-03-02T13:10:21.498Z,47.37
2023-03-02T13:12:49.202Z,44.60
2023-03-02T13:15:17.944Z,47.28
2023-03-02T13:17:53.050Z,47.94
2023-03-02T13:20:22.255Z,45.47
2023-03-02T13:22:50.566Z,47.21
2023-03-02T13:25:30.908Z,47.02
2023-03-02T13:28:11.236Z,48.13
2023-03-02T13:30:48.057Z,46.12
2023-03-02T13:33:23.046Z,46.39
2023-03-02T13:35:51.310Z,44.83
2023-03-02T13:38:21.824Z,48.43
2023-03-02T13:40:52.032Z,44.80
2023-03-02T13:43:24.291Z,46.33
2023-03-02T13:46:02.247Z,49.43
2023-03-02T13:48:30.413Z,47.34
2023-03-02T13:51:03.918Z,49.41
2023-03-02T13:53:38.337Z,44.27
2023-03-02T13:56:06.153Z,44.82
2023-03-02T13:58:38.729Z,45.90
2023-03-02T14:01:07.520Z,46.17
2023-03-02T14:03:35.187Z,46.08
2023-03-02T14:06:02.726Z,48.66
2023-03-02T14:08:30.301Z,46.77
2023-03-02T14:11:01.512Z,50.76
2023-03-02T14:13:41.510Z,50.31
2023-03-02T14:16:16.835Z,49.70
2023-03-02T14:18:49.671Z,50.32
2023-03-02T14:21:19.118Z,48.77
2023-03-02T14:23:47.803Z,47.37
2023-03-02T14:26:32.951Z,50.78
2023-03-02T14:29:06.274Z,48.84
2023-03-02T14:31:35.134Z,47.24
2023-03-02T14:34:03.229Z,49.10
2023-03-02T14:36:34.262Z,49.73
2023-03-02T14:39:08.140Z,50.82
2023-03-02T14:41:52.623Z,48.76
2023-03-02T14:44:20.994Z,49.88
2023-03-02T14:46:48.813Z,50.24
2023-03-02T14:49:16.560Z,51.18
2023-03-02T14:51:46.553Z,50.61
2023-03-02T14:54:19.609Z,50.94
2023-03-02T14:56:49.324Z,50.88
2023-03-02T14:59:18.166Z,47.71
2023-03-02T15:01:46.008Z,49.05
2023-03-02T15:04:13.552Z,49.38
2023-03-02T15:06:43.707Z,49.84
2023-03-02T15:09:12.023Z,50.46
2023-03-02T15:11:39.595Z,50.25
2023-03-02T15:14:07.277Z,51.50
2023-03-02T15:16:34.969Z,52.96
2023-03-02T15:19:02.601Z,50.72
2023-03-02T15:21:30.128Z,52.24
2023-03-02T15:23:57.831Z,53.32
2023-03-02T15:26:25.506Z,49.45
2023-03-02T15:28:53.132Z,53.67
2023-03-02T15:31:23.756Z,51.93
2023-03-02T15:33:52.451Z,53.18
2023-03-02T15:36:21.147Z,54.40
2023-03-02T15:38:53.640Z,55.27
2023-03-02T15:41:28.538Z,54.81
2023-03-02T15:43:56.830Z,53.75
2023-03-02T15:46:24.853Z,53.52
2023-03-02T15:48:53.906Z,54.04
2023-03-02T15:51:21.608Z,55.19
2023-03-02T15:53:49.424Z,54.29
2023-03-02T15:56:17.872Z,54.39
2023-03-02T15:58:52.247Z,55.45
2023-03-02T16:01:22.632Z,54.09
2023-03-02T16:03:50.652Z,55.73
2023-03-02T16:06:18.547Z,57.84
2023-03-02T16:08:46.195Z,57.46
2023-03-02T16:11:18.752Z,57.39
2023-03-02T16:13:46.471Z,57.33
2023-03-02T16:16:14.148Z,56.68
2023-03-02T16:18:41.729Z,56.05
2023-03-02T16:21:13.663Z,56.27
2023-03-02T16:23:41.297Z,54.49
2023-03-02T16:26:11.264Z,53.39
2023-03-02T16:28:39.035Z,52.06
2023-03-02T16:31:09.732Z,52.48
2023-03-02T16:33:38.727Z,52.64
2023-03-02T16:36:07.148Z,52.46
2023-03-02T16:38:34.864Z,52.50
2023-03-02T16:41:18.764Z,52.01
2023-03-02T16:43:49.107Z,51.20
2023-03-02T16:46:18.175Z,50.39
2023-03-02T16:48:47.133Z,53.85
2023-03-02T16:51:15.643Z,55.39
2023-03-02T16:53:43.403Z,55.68
2023-03-02T16:56:13.287Z,52.93
2023-03-02T16:58:42.387Z,55.74
2023-03-02T17:01:12.991Z,57.82
2023-03-02T17:03:41.369Z,53.80
2023-03-02T17:06:12.264Z,53.68
2023-03-02T17:08:40.494Z,53.26
2023-03-02T17:11:08.616Z,55.72
2023-03-02T17:13:36.261Z,52.41
2023-03-02T17:16:04.591Z,55.15
2023-03-02T17:18:33.605Z,52.89
2023-03-02T17:21:01.480Z,54.05
2023-03-02T17:23:29.463Z,55.09
2023-03-02T17:25:57.295Z,56.02
2023-03-02T17:28:25.048Z,53.57
2023-03-02T17:30:52.730Z,55.15
2023-03-02T17:33:20.548Z,53.83
2023-03-02T17:35:48.333Z,55.49
2023-03-02T17:38:16.656Z,58.06
2023-03-02T17:40:44.716Z,57.02
2023-03-02T17:43:13.015Z,56.22
2023-03-02T17:45:41.602Z,55.63
2023-03-02T17:48:09.202Z,54.89
2023-03-02T17:50:49.201Z,57.66
2023-03-02T17:53:16.817Z,54.57
2023-03-02T17:55:44.629Z,54.15
2023-03-02T17:58:12.184Z,54.12
2023-03-02T18:00:41.447Z,53.87
2023-03-02T18:03:09.303Z,54.55
2023-03-02T18:05:37.231Z,53.38
2023-03-02T18:08:05.307Z,54.60
2023-03-02T18:10:33.083Z,53.92
2023-03-02T18:13:00.780Z,55.08
2023-03-02T18:15:30.300Z,55.83
2023-03-02T18:17:58.343Z,55.60
2023-03-02T18:20:25.932Z,56.15
2023-03-02T18:22:57.659Z,58.00
2023-03-02T18:25:32.639Z,56.94
2023-03-02T18:28:00.237Z,56.75
2023-03-02T18:30:27.969Z,54.95
2023-03-02T18:32:55.704Z,56.20
2023-03-02T18:35:23.771Z,55.89
2023-03-02T18:37:51.483Z,54.27
2023-03-02T18:40:19.545Z,52.81
2023-03-02T18:42:47.701Z,53.92
2023-03-02T18:45:25.126Z,54.96
2023-03-02T18:47:53.166Z,52.27
2023-03-02T18:50:21.854Z,51.38
2023-03-02T18:52:53.312Z,51.60
2023-03-02T18:55:23.485Z,51.43
2023-03-02T18:57:54.173Z,51.50
2023-03-02T19:00:27.666Z,52.29
2023-03-02T19:02:56.036Z,50.90
2023-03-02T19:05:25.495Z,52.58
2023-03-02T19:07:55.182Z,51.54
2023-03-02T19:10:22.808Z,50.39
2023-03-02T19:12:50.656Z,52.28
2023-03-02T19:15:18.432Z,55.03
2023-03-02T19:17:46.350Z,51.83
2023-03-02T19:20:16.019Z,52.78
2023-03-02T19:22:43.593Z,52.41
2023-03-02T19:25:11.569Z,54.65
2023-03-02T19:27:42.091Z,55.49
2023-03-02T19:30:14.611Z,57.08
2023-03-02T19:32:42.373Z,56.47
2023-03-02T19:35:14.830Z,59.81
2023-03-02T19:37:43.412Z,62.60
2023-03-02T19:40:13.035Z,60.50
2023-03-02T19:42:40.925Z,63.08
2023-03-02T19:45:12.747Z,63.84
2023-03-02T19:47:40.857Z,64.89
2023-03-02T19:50:09.218Z,66.84
2023-03-02T19:52:37.736Z,67.81
2023-03-02T19:55:07.518Z,69.33
2023-03-02T19:57:35.387Z,70.13
2023-03-02T20:00:05.907Z,71.86
2023-03-02T20:02:36.338Z,73.05
2023-03-02T20:05:04.878Z,73.25
2023-03-02T20:07:32.467Z,73.35
2023-03-02T20:10:00.179Z,72.06
2023-03-02T20:12:27.753Z,71.47
2023-03-02T20:14:57.119Z,69.32
2023-03-02T20:17:24.633Z,66.34
2023-03-02T20:19:52.993Z,61.36
2023-03-02T20:22:20.536Z,60.33
2023-03-02T20:24:48.104Z,58.87
2023-03-02T20:27:15.747Z,56.89
2023-03-02T20:29:43.615Z,56.94
2023-03-02T20:32:13.380Z,55.07
2023-03-02T20:34:42.935Z,54.58
2023-03-02T20:37:14.215Z,54.40
2023-03-02T20:39:44.280Z,54.59
2023-03-02T20:42:13.203Z,54.32
2023-03-02T20:44:40.970Z,56.49
2023-03-02T20:47:10.179Z,58.18
2023-03-02T20:49:39.172Z,59.87
2023-03-02T20:52:08.470Z,59.26
2023-03-02T20:54:41.059Z,56.23
2023-03-02T20:57:09.349Z,55.09
2023-03-02T20:59:38.465Z,55.94
2023-03-02T21:02:06.556Z,56.47
2023-03-02T21:04:36.341Z,56.82
2023-03-02T21:07:03.970Z,55.68
2023-03-02T21:09:31.531Z,57.92
2023-03-02T21:11:59.258Z,58.01
2023-03-02T21:14:31.076Z,55.35
2023-03-02T21:16:59.763Z,56.56
2023-03-02T21:19:30.120Z,56.40
2023-03-02T21:21:58.198Z,56.64
2023-03-02T21:24:25.822Z,56.27
2023-03-02T21:26:55.162Z,58.02
2023-03-02T21:29:25.362Z,60.35
2023-03-02T21:31:53.935Z,59.11
2023-03-02T21:34:22.669Z,56.75
2023-03-02T21:36:53.863Z,57.53
2023-03-02T21:39:26.160Z,57.18
2023-03-02T21:41:54.294Z,55.54
2023-03-02T21:44:22.207Z,54.85
2023-03-02T21:46:51.155Z,52.22
2023-03-02T21:49:21.474Z,50.79
2023-03-02T21:51:50.000Z,51.10
2023-03-02T21:54:17.739Z,51.12
2023-03-02T21:56:45.560Z,50.65
2023-03-02T21:59:13.256Z,51.81
2023-03-02T22:01:41.001Z,50.92
2023-03-02T22:04:08.689Z,50.08
2023-03-02T22:06:37.886Z,50.62
2023-03-02T22:09:05.579Z,49.54
2023-03-02T22:11:38.104Z,51.20
2023-03-02T22:14:17.884Z,51.11
2023-03-02T22:16:48.284Z,49.34
2023-03-02T22:19:29.393Z,47.85
2023-03-02T22:22:08.654Z,48.94
2023-03-02T22:24:36.222Z,47.77
2023-03-02T22:27:24.564Z,44.57
2023-03-02T22:29:55.625Z,44.56
2023-03-02T22:32:25.416Z,45.14
2023-03-02T22:35:22.327Z,45.82
2023-03-02T22:37:52.158Z,44.87
2023-03-02T22:40:45.901Z,45.61
2023-03-02T22:43:30.161Z,46.10
2023-03-02T22:46:20.514Z,46.43
2023-03-02T22:48:52.756Z,45.57
2023-03-02T22:51:28.386Z,45.01
2023-03-02T22:54:00.761Z,44.43
2023-03-02T22:56:37.725Z,44.41
2023-03-02T22:59:27.560Z,44.73
2023-03-02T23:02:00.413Z,45.74
2023-03-02T23:04:32.021Z,46.05
2023-03-02T23:07:03.078Z,44.79
2023-03-02T23:09:33.454Z,44.93
2023-03-02T23:12:26.564Z,46.47
2023-03-02T23:15:20.959Z,45.35
2023-03-02T23:17:48.724Z,44.54
2023-03-02T23:20:16.686Z,44.51
2023-03-02T23:22:44.848Z,43.35
2023-03-02T23:25:14.644Z,43.93
2023-03-02T23:27:42.366Z,45.04
2023-03-02T23:30:10.384Z,46.50
2023-03-02T23:32:38.129Z,45.05
2023-03-02T23:35:06.130Z,45.09
2023-03-02T23:37:33.879Z,44.24
2023-03-02T23:40:01.450Z,44.91
2023-03-02T23:42:30.364Z,46.41
2023-03-02T23:44:57.850Z,45.38
2023-03-02T23:47:25.555Z,45.08
2023-03-02T23:49:53.216Z,46.42
2023-03-02T23:52:20.759Z,46.47
2023-03-02T23:54:48.402Z,45.77
2023-03-02T23:57:16.491Z,46.37
2023-03-02T23:59:44.134Z,45.90
